RXA6117 YMRY-YSSY
Flight info
| Callsign | RXA6117 |
|---|---|
| Flight time | 0h 52m |
| Altitude | 20000 |
| Route | URBOB W40 AKMIR/N0278F190 W113 ODALE |
| Aircraft | SF34/M-SDFGR/S |
Departure
| Time | 2026-04-20 11:18 |
|---|---|
| Airport | Moruya Airport (YMRY) |
Arrival
| Time | 2026-04-20 12:10 |
|---|---|
| Airport | Sydney Kingsford Smith International Airport (YSSY) |
| Time | Latitude | Longitude | Altitude | Speed | Heading |
|---|---|---|---|---|---|
| 2026-04-20 11:12 | -35.90256 | 150.14619 | 33 ft | 0 kts | 220° |
| 2026-04-20 11:13 | -35.90245 | 150.14601 | 35 ft | 9 kts | 321° |
| 2026-04-20 11:14 | -35.90228 | 150.14567 | 32 ft | 0 kts | 282° |
| 2026-04-20 11:14 | -35.90227 | 150.14565 | 32 ft | 3 kts | 281° |
| 2026-04-20 11:15 | -35.90194 | 150.14496 | 34 ft | 14 kts | 355° |
| 2026-04-20 11:15 | -35.90043 | 150.14533 | 34 ft | 31 kts | 12° |
| 2026-04-20 11:15 | -35.89783 | 150.14597 | 32 ft | 44 kts | 9° |
| 2026-04-20 11:15 | -35.89454 | 150.14678 | 32 ft | 51 kts | 9° |
| 2026-04-20 11:16 | -35.89138 | 150.14759 | 31 ft | 33 kts | 13° |
| 2026-04-20 11:16 | -35.88987 | 150.14799 | 32 ft | 29 kts | 9° |
| 2026-04-20 11:16 | -35.88890 | 150.14816 | 30 ft | 6 kts | 109° |
| 2026-04-20 11:16 | -35.88972 | 150.14805 | 31 ft | 8 kts | 191° |
| 2026-04-20 11:17 | -35.88974 | 150.14804 | 31 ft | 0 kts | 191° |
| 2026-04-20 11:17 | -35.88984 | 150.14802 | 31 ft | 16 kts | 192° |
| 2026-04-20 11:17 | -35.89096 | 150.14768 | 32 ft | 34 kts | 189° |
| 2026-04-20 11:18 | -35.89099 | 150.14767 | 32 ft | 33 kts | 189° |
| 2026-04-20 11:18 | -35.89260 | 150.14729 | 32 ft | 55 kts | 194° |
| 2026-04-20 11:18 | -35.89789 | 150.14401 | 184 ft | 105 kts | 201° |
| 2026-04-20 11:18 | -35.90544 | 150.14108 | 641 ft | 132 kts | 202° |
| 2026-04-20 11:19 | -35.91385 | 150.13494 | 1088 ft | 155 kts | 233° |
| 2026-04-20 11:19 | -35.91586 | 150.12120 | 1621 ft | 183 kts | 282° |
| 2026-04-20 11:19 | -35.90819 | 150.10766 | 2158 ft | 209 kts | 323° |
| 2026-04-20 11:19 | -35.89390 | 150.10236 | 2688 ft | 225 kts | 2° |
| 2026-04-20 11:20 | -35.87913 | 150.10830 | 3219 ft | 224 kts | 34° |
| 2026-04-20 11:20 | -35.86660 | 150.11974 | 3741 ft | 225 kts | 40° |
| 2026-04-20 11:20 | -35.85422 | 150.13160 | 4252 ft | 226 kts | 37° |
| 2026-04-20 11:20 | -35.83936 | 150.13815 | 4752 ft | 234 kts | 5° |
| 2026-04-20 11:21 | -35.82361 | 150.13440 | 5256 ft | 237 kts | 339° |
| 2026-04-20 11:21 | -35.80775 | 150.12834 | 5756 ft | 241 kts | 349° |
| 2026-04-20 11:21 | -35.79101 | 150.12601 | 6269 ft | 244 kts | 356° |
| 2026-04-20 11:21 | -35.77401 | 150.12427 | 6783 ft | 248 kts | 354° |
| 2026-04-20 11:22 | -35.75679 | 150.12134 | 7264 ft | 251 kts | 352° |
| 2026-04-20 11:22 | -35.73937 | 150.11854 | 7759 ft | 254 kts | 354° |
| 2026-04-20 11:22 | -35.72181 | 150.11597 | 8250 ft | 255 kts | 353° |
| 2026-04-20 11:22 | -35.70415 | 150.11325 | 8756 ft | 256 kts | 353° |
| 2026-04-20 11:23 | -35.68666 | 150.11075 | 9262 ft | 257 kts | 354° |
| 2026-04-20 11:23 | -35.66886 | 150.10796 | 9781 ft | 258 kts | 352° |
| 2026-04-20 11:23 | -35.65097 | 150.10512 | 10301 ft | 260 kts | 354° |
| 2026-04-20 11:23 | -35.63301 | 150.10273 | 10777 ft | 261 kts | 353° |
| 2026-04-20 11:24 | -35.61498 | 150.09978 | 11253 ft | 262 kts | 353° |
| 2026-04-20 11:24 | -35.59678 | 150.09700 | 11739 ft | 264 kts | 354° |
| 2026-04-20 11:24 | -35.57849 | 150.09435 | 12233 ft | 265 kts | 353° |
| 2026-04-20 11:24 | -35.56008 | 150.09145 | 12738 ft | 268 kts | 353° |
| 2026-04-20 11:25 | -35.54177 | 150.08873 | 13245 ft | 270 kts | 354° |
| 2026-04-20 11:25 | -35.52310 | 150.08589 | 13761 ft | 271 kts | 353° |
| 2026-04-20 11:25 | -35.50431 | 150.08308 | 14274 ft | 273 kts | 353° |
| 2026-04-20 11:25 | -35.48541 | 150.08021 | 14743 ft | 275 kts | 353° |
| 2026-04-20 11:26 | -35.46638 | 150.07733 | 15214 ft | 276 kts | 353° |
| 2026-04-20 11:26 | -35.44726 | 150.07445 | 15698 ft | 278 kts | 353° |
| 2026-04-20 11:26 | -35.42805 | 150.07157 | 16193 ft | 278 kts | 353° |
| 2026-04-20 11:26 | -35.40884 | 150.06863 | 16691 ft | 279 kts | 353° |
| 2026-04-20 11:27 | -35.38960 | 150.06578 | 17195 ft | 279 kts | 353° |
| 2026-04-20 11:27 | -35.37034 | 150.06290 | 17703 ft | 278 kts | 352° |
| 2026-04-20 11:27 | -35.35116 | 150.05995 | 18226 ft | 277 kts | 352° |
| 2026-04-20 11:27 | -35.33201 | 150.05709 | 18748 ft | 277 kts | 352° |
| 2026-04-20 11:28 | -35.31285 | 150.05421 | 19213 ft | 278 kts | 352° |
| 2026-04-20 11:28 | -35.29367 | 150.05132 | 19677 ft | 277 kts | 353° |
| 2026-04-20 11:28 | -35.27482 | 150.04851 | 20139 ft | 276 kts | 352° |
| 2026-04-20 11:28 | -35.25542 | 150.04557 | 20365 ft | 288 kts | 352° |
| 2026-04-20 11:29 | -35.23505 | 150.04251 | 20391 ft | 302 kts | 352° |
| 2026-04-20 11:29 | -35.21384 | 150.03934 | 20402 ft | 312 kts | 352° |
| 2026-04-20 11:29 | -35.19208 | 150.03608 | 20407 ft | 318 kts | 352° |
| 2026-04-20 11:29 | -35.16998 | 150.03298 | 20408 ft | 321 kts | 356° |
| 2026-04-20 11:30 | -35.14764 | 150.03444 | 20411 ft | 322 kts | 9° |
| 2026-04-20 11:30 | -35.12543 | 150.03846 | 20410 ft | 323 kts | 8° |
| 2026-04-20 11:30 | -35.10292 | 150.04041 | 20410 ft | 325 kts | 2° |
| 2026-04-20 11:30 | -35.08055 | 150.04116 | 20405 ft | 326 kts | 2° |
| 2026-04-20 11:31 | -35.05788 | 150.04257 | 20404 ft | 326 kts | 5° |
| 2026-04-20 11:31 | -35.03524 | 150.04477 | 20404 ft | 326 kts | 5° |
| 2026-04-20 11:31 | -35.01257 | 150.04614 | 20404 ft | 327 kts | 3° |
| 2026-04-20 11:31 | -34.98989 | 150.04753 | 20401 ft | 326 kts | 5° |
| 2026-04-20 11:32 | -34.96725 | 150.04974 | 20406 ft | 326 kts | 5° |
| 2026-04-20 11:32 | -34.94454 | 150.05124 | 20406 ft | 327 kts | 3° |
| 2026-04-20 11:32 | -34.92181 | 150.05266 | 20403 ft | 327 kts | 4° |
| 2026-04-20 11:32 | -34.89917 | 150.05462 | 20403 ft | 326 kts | 4° |
| 2026-04-20 11:33 | -34.87653 | 150.05612 | 20401 ft | 326 kts | 3° |
| 2026-04-20 11:33 | -34.85424 | 150.05776 | 20395 ft | 325 kts | 4° |
| 2026-04-20 11:33 | -34.83166 | 150.05950 | 20390 ft | 325 kts | 4° |
| 2026-04-20 11:33 | -34.80907 | 150.06105 | 20397 ft | 325 kts | 4° |
| 2026-04-20 11:34 | -34.79413 | 150.06214 | 20396 ft | 325 kts | 4° |
| 2026-04-20 11:34 | -34.76399 | 150.06445 | 20397 ft | 324 kts | 4° |
| 2026-04-20 11:34 | -34.74146 | 150.06600 | 20393 ft | 325 kts | 4° |
| 2026-04-20 11:34 | -34.71888 | 150.06763 | 20393 ft | 325 kts | 4° |
| 2026-04-20 11:35 | -34.69628 | 150.06936 | 20391 ft | 325 kts | 4° |
| 2026-04-20 11:35 | -34.67365 | 150.07094 | 20396 ft | 326 kts | 4° |
| 2026-04-20 11:35 | -34.65104 | 150.07262 | 20395 ft | 326 kts | 4° |
| 2026-04-20 11:35 | -34.62872 | 150.07426 | 20395 ft | 326 kts | 4° |
| 2026-04-20 11:36 | -34.60627 | 150.07585 | 20393 ft | 319 kts | 4° |
| 2026-04-20 11:36 | -34.58436 | 150.07742 | 20384 ft | 313 kts | 4° |
| 2026-04-20 11:36 | -34.56274 | 150.07902 | 20386 ft | 310 kts | 4° |
| 2026-04-20 11:36 | -34.54129 | 150.08059 | 20387 ft | 308 kts | 4° |
| 2026-04-20 11:37 | -34.51992 | 150.08212 | 20378 ft | 307 kts | 4° |
| 2026-04-20 11:37 | -34.48449 | 150.08472 | 20384 ft | 307 kts | 4° |
| 2026-04-20 11:37 | -34.45601 | 150.08676 | 20381 ft | 306 kts | 4° |
| 2026-04-20 11:38 | -34.44193 | 150.08778 | 20383 ft | 306 kts | 4° |
| 2026-04-20 11:38 | -34.42071 | 150.08935 | 20387 ft | 306 kts | 4° |
| 2026-04-20 11:38 | -34.39253 | 150.09134 | 20384 ft | 306 kts | 4° |
| 2026-04-20 11:38 | -34.37128 | 150.09291 | 20388 ft | 306 kts | 4° |
| 2026-04-20 11:39 | -34.35692 | 150.09396 | 20387 ft | 306 kts | 4° |
| 2026-04-20 11:39 | -34.33576 | 150.09553 | 20393 ft | 304 kts | 4° |
| 2026-04-20 11:39 | -34.31458 | 150.09695 | 20386 ft | 305 kts | 3° |
| 2026-04-20 11:39 | -34.29363 | 150.09841 | 20382 ft | 305 kts | 4° |
| 2026-04-20 11:40 | -34.27238 | 150.10014 | 20266 ft | 309 kts | 4° |
| 2026-04-20 11:40 | -34.25077 | 150.10159 | 19985 ft | 309 kts | 3° |
| 2026-04-20 11:40 | -34.22953 | 150.10311 | 19696 ft | 304 kts | 4° |
| 2026-04-20 11:40 | -34.20850 | 150.10467 | 19412 ft | 302 kts | 4° |
| 2026-04-20 11:41 | -34.18757 | 150.10613 | 19131 ft | 300 kts | 4° |
| 2026-04-20 11:41 | -34.16738 | 150.11202 | 18667 ft | 301 kts | 29° |
| 2026-04-20 11:41 | -34.15152 | 150.12721 | 18044 ft | 279 kts | 57° |
| 2026-04-20 11:41 | -34.14368 | 150.14745 | 17422 ft | 259 kts | 86° |
| 2026-04-20 11:42 | -34.14472 | 150.16787 | 16823 ft | 241 kts | 115° |
| 2026-04-20 11:42 | -34.15181 | 150.18582 | 16236 ft | 235 kts | 124° |
| 2026-04-20 11:42 | -34.15864 | 150.20380 | 15648 ft | 241 kts | 108° |
| 2026-04-20 11:42 | -34.15786 | 150.22434 | 15066 ft | 255 kts | 78° |
| 2026-04-20 11:43 | -34.15003 | 150.24315 | 14440 ft | 239 kts | 66° |
| 2026-04-20 11:43 | -34.14398 | 150.26184 | 13765 ft | 250 kts | 82° |
| 2026-04-20 11:43 | -34.14043 | 150.28242 | 13074 ft | 252 kts | 84° |
| 2026-04-20 11:43 | -34.13639 | 150.30297 | 12546 ft | 249 kts | 79° |
| 2026-04-20 11:44 | -34.13164 | 150.32291 | 12131 ft | 245 kts | 80° |
| 2026-04-20 11:44 | -34.12752 | 150.34254 | 11796 ft | 239 kts | 82° |
| 2026-04-20 11:44 | -34.12336 | 150.36191 | 11454 ft | 238 kts | 81° |
| 2026-04-20 11:44 | -34.11908 | 150.38110 | 11115 ft | 236 kts | 81° |
| 2026-04-20 11:45 | -34.11505 | 150.39985 | 10840 ft | 232 kts | 81° |
| 2026-04-20 11:45 | -34.11096 | 150.41856 | 10569 ft | 230 kts | 81° |
| 2026-04-20 11:45 | -34.10688 | 150.43721 | 10285 ft | 229 kts | 81° |
| 2026-04-20 11:45 | -34.10283 | 150.45574 | 9976 ft | 228 kts | 81° |
| 2026-04-20 11:46 | -34.09878 | 150.47423 | 9659 ft | 228 kts | 81° |
| 2026-04-20 11:46 | -34.09475 | 150.49272 | 9347 ft | 227 kts | 81° |
| 2026-04-20 11:46 | -34.09071 | 150.51110 | 9044 ft | 226 kts | 81° |
| 2026-04-20 11:46 | -34.08672 | 150.52941 | 8732 ft | 225 kts | 81° |
| 2026-04-20 11:47 | -34.08285 | 150.54764 | 8433 ft | 224 kts | 81° |
| 2026-04-20 11:47 | -34.07894 | 150.56580 | 8133 ft | 223 kts | 81° |
| 2026-04-20 11:47 | -34.07507 | 150.58385 | 7838 ft | 222 kts | 81° |
| 2026-04-20 11:47 | -34.07120 | 150.60182 | 7543 ft | 221 kts | 81° |
| 2026-04-20 11:48 | -34.06735 | 150.61969 | 7256 ft | 220 kts | 81° |
| 2026-04-20 11:48 | -34.06357 | 150.63728 | 6935 ft | 219 kts | 81° |
| 2026-04-20 11:48 | -34.05972 | 150.65506 | 6576 ft | 219 kts | 81° |
| 2026-04-20 11:48 | -34.05590 | 150.67279 | 6196 ft | 217 kts | 80° |
| 2026-04-20 11:49 | -34.05216 | 150.69008 | 6060 ft | 209 kts | 81° |
| 2026-04-20 11:49 | -34.04852 | 150.70729 | 6019 ft | 218 kts | 80° |
| 2026-04-20 11:49 | -34.04460 | 150.72510 | 6027 ft | 221 kts | 80° |
| 2026-04-20 11:49 | -34.04072 | 150.74308 | 6024 ft | 222 kts | 80° |
| 2026-04-20 11:50 | -34.03683 | 150.76111 | 6013 ft | 223 kts | 82° |
| 2026-04-20 11:50 | -34.03289 | 150.77920 | 6015 ft | 224 kts | 82° |
| 2026-04-20 11:50 | -34.02885 | 150.79731 | 6016 ft | 224 kts | 81° |
| 2026-04-20 11:50 | -34.02453 | 150.81512 | 6017 ft | 224 kts | 79° |
| 2026-04-20 11:51 | -34.02033 | 150.83321 | 6013 ft | 224 kts | 80° |
| 2026-04-20 11:51 | -34.01612 | 150.85134 | 6011 ft | 225 kts | 80° |
| 2026-04-20 11:51 | -34.01183 | 150.86940 | 6008 ft | 224 kts | 80° |
| 2026-04-20 11:51 | -34.00762 | 150.88748 | 6006 ft | 224 kts | 80° |
| 2026-04-20 11:52 | -34.00339 | 150.90551 | 6007 ft | 224 kts | 80° |
| 2026-04-20 11:52 | -33.99917 | 150.92344 | 6006 ft | 223 kts | 80° |
| 2026-04-20 11:52 | -33.99492 | 150.94153 | 6007 ft | 223 kts | 80° |
| 2026-04-20 11:52 | -33.99069 | 150.95952 | 6009 ft | 223 kts | 80° |
| 2026-04-20 11:53 | -33.98644 | 150.97754 | 6008 ft | 224 kts | 79° |
| 2026-04-20 11:53 | -33.98260 | 150.99562 | 6008 ft | 222 kts | 83° |
| 2026-04-20 11:53 | -33.97921 | 151.01223 | 5999 ft | 181 kts | 81° |
| 2026-04-20 11:53 | -33.97640 | 151.02609 | 5994 ft | 171 kts | 84° |
| 2026-04-20 11:54 | -33.97348 | 151.04024 | 5995 ft | 175 kts | 83° |
| 2026-04-20 11:54 | -33.97050 | 151.05443 | 5995 ft | 175 kts | 84° |
| 2026-04-20 11:54 | -33.96755 | 151.06874 | 5994 ft | 177 kts | 84° |
| 2026-04-20 11:54 | -33.96455 | 151.08310 | 5996 ft | 177 kts | 83° |
| 2026-04-20 11:55 | -33.96157 | 151.09745 | 5998 ft | 176 kts | 84° |
| 2026-04-20 11:55 | -33.95858 | 151.11176 | 5998 ft | 177 kts | 84° |
| 2026-04-20 11:55 | -33.95561 | 151.12616 | 5995 ft | 178 kts | 84° |
| 2026-04-20 11:55 | -33.95258 | 151.14059 | 5997 ft | 177 kts | 83° |
| 2026-04-20 11:56 | -33.94964 | 151.15476 | 5998 ft | 176 kts | 84° |
| 2026-04-20 11:56 | -33.94666 | 151.16911 | 5996 ft | 177 kts | 84° |
| 2026-04-20 11:56 | -33.94361 | 151.18352 | 5995 ft | 177 kts | 81° |
| 2026-04-20 11:56 | -33.93644 | 151.19601 | 6000 ft | 190 kts | 46° |
| 2026-04-20 11:57 | -33.92591 | 151.20591 | 5999 ft | 192 kts | 43° |
| 2026-04-20 11:57 | -33.91536 | 151.21573 | 6001 ft | 192 kts | 43° |
| 2026-04-20 11:57 | -33.90480 | 151.22556 | 5999 ft | 192 kts | 43° |
| 2026-04-20 11:57 | -33.89397 | 151.23574 | 6007 ft | 214 kts | 43° |
| 2026-04-20 11:58 | -33.88168 | 151.24771 | 6018 ft | 237 kts | 43° |
| 2026-04-20 11:58 | -33.86861 | 151.26050 | 6014 ft | 247 kts | 43° |
| 2026-04-20 11:58 | -33.85520 | 151.27365 | 6011 ft | 251 kts | 43° |
| 2026-04-20 11:58 | -33.84170 | 151.28698 | 6011 ft | 250 kts | 43° |
| 2026-04-20 11:59 | -33.82771 | 151.29870 | 6004 ft | 253 kts | 25° |
| 2026-04-20 11:59 | -33.81023 | 151.30195 | 6000 ft | 258 kts | 359° |
| 2026-04-20 11:59 | -33.79235 | 151.30011 | 6007 ft | 258 kts | 354° |
| 2026-04-20 11:59 | -33.77450 | 151.29760 | 6008 ft | 259 kts | 353° |
| 2026-04-20 12:00 | -33.75698 | 151.29512 | 5794 ft | 244 kts | 352° |
| 2026-04-20 12:00 | -33.74033 | 151.29260 | 5540 ft | 238 kts | 353° |
| 2026-04-20 12:00 | -33.72398 | 151.29027 | 5283 ft | 235 kts | 353° |
| 2026-04-20 12:00 | -33.70779 | 151.28802 | 5037 ft | 234 kts | 353° |
| 2026-04-20 12:01 | -33.69170 | 151.28580 | 4776 ft | 232 kts | 353° |
| 2026-04-20 12:01 | -33.67561 | 151.28354 | 4524 ft | 232 kts | 353° |
| 2026-04-20 12:01 | -33.66036 | 151.27819 | 4262 ft | 229 kts | 326° |
| 2026-04-20 12:01 | -33.65005 | 151.26440 | 4063 ft | 218 kts | 290° |
| 2026-04-20 12:02 | -33.64480 | 151.24802 | 4018 ft | 204 kts | 284° |
| 2026-04-20 12:02 | -33.64026 | 151.23239 | 3994 ft | 199 kts | 283° |
| 2026-04-20 12:02 | -33.63576 | 151.21683 | 3985 ft | 196 kts | 283° |
| 2026-04-20 12:02 | -33.63433 | 151.20126 | 3978 ft | 186 kts | 252° |
| 2026-04-20 12:03 | -33.63836 | 151.18685 | 3984 ft | 182 kts | 243° |
| 2026-04-20 12:03 | -33.64276 | 151.17262 | 3972 ft | 179 kts | 241° |
| 2026-04-20 12:03 | -33.64965 | 151.16098 | 3980 ft | 169 kts | 210° |
| 2026-04-20 12:03 | -33.66032 | 151.15594 | 3988 ft | 165 kts | 193° |
| 2026-04-20 12:04 | -33.67148 | 151.15211 | 3972 ft | 167 kts | 194° |
| 2026-04-20 12:04 | -33.68329 | 151.14810 | 3998 ft | 187 kts | 194° |
| 2026-04-20 12:04 | -33.69621 | 151.14389 | 3999 ft | 198 kts | 193° |
| 2026-04-20 12:04 | -33.70968 | 151.13979 | 3996 ft | 200 kts | 192° |
| 2026-04-20 12:05 | -33.72348 | 151.13911 | 3998 ft | 200 kts | 177° |
| 2026-04-20 12:05 | -33.73739 | 151.13961 | 3998 ft | 200 kts | 176° |
| 2026-04-20 12:05 | -33.75123 | 151.14081 | 3875 ft | 206 kts | 175° |
| 2026-04-20 12:05 | -33.76563 | 151.14217 | 3632 ft | 208 kts | 174° |
| 2026-04-20 12:06 | -33.77993 | 151.14433 | 3387 ft | 208 kts | 169° |
| 2026-04-20 12:06 | -33.79403 | 151.14828 | 3138 ft | 208 kts | 164° |
| 2026-04-20 12:06 | -33.80796 | 151.15311 | 2867 ft | 209 kts | 166° |
| 2026-04-20 12:06 | -33.82090 | 151.15646 | 2540 ft | 172 kts | 169° |
| 2026-04-20 12:07 | -33.83173 | 151.15904 | 2290 ft | 149 kts | 170° |
| 2026-04-20 12:07 | -33.84155 | 151.16151 | 2153 ft | 140 kts | 169° |
| 2026-04-20 12:07 | -33.85081 | 151.16398 | 2048 ft | 136 kts | 169° |
| 2026-04-20 12:07 | -33.86005 | 151.16566 | 1945 ft | 134 kts | 171° |
| 2026-04-20 12:08 | -33.86887 | 151.16788 | 1743 ft | 125 kts | 168° |
| 2026-04-20 12:08 | -33.87721 | 151.17027 | 1559 ft | 123 kts | 170° |
| 2026-04-20 12:08 | -33.88570 | 151.17220 | 1326 ft | 125 kts | 172° |
| 2026-04-20 12:08 | -33.89437 | 151.17419 | 1226 ft | 129 kts | 169° |
| 2026-04-20 12:09 | -33.90314 | 151.17637 | 1143 ft | 129 kts | 169° |
| 2026-04-20 12:09 | -33.91195 | 151.17879 | 979 ft | 132 kts | 169° |
| 2026-04-20 12:09 | -33.92107 | 151.18110 | 778 ft | 139 kts | 171° |
| 2026-04-20 12:09 | -33.93020 | 151.18347 | 511 ft | 123 kts | 169° |
| 2026-04-20 12:10 | -33.93797 | 151.18543 | 363 ft | 108 kts | 173° |
| 2026-04-20 12:10 | -33.94498 | 151.18712 | 193 ft | 107 kts | 172° |
| 2026-04-20 12:10 | -33.95169 | 151.18891 | 41 ft | 91 kts | 173° |
| 2026-04-20 12:10 | -33.95611 | 151.19001 | 19 ft | 29 kts | 168° |
| 2026-04-20 12:11 | -33.95848 | 151.19061 | 24 ft | 41 kts | 169° |
| 2026-04-20 12:11 | -33.96067 | 151.19119 | 26 ft | 34 kts | 167° |
| 2026-04-20 12:11 | -33.96363 | 151.19194 | 18 ft | 51 kts | 168° |
| 2026-04-20 12:11 | -33.96585 | 151.19219 | 16 ft | 35 kts | 189° |
| 2026-04-20 12:12 | -33.96710 | 151.19161 | 13 ft | 11 kts | 226° |
| 2026-04-20 12:12 | -33.96712 | 151.19159 | 13 ft | 0 kts | 231° |
| 2026-04-20 12:13 | -33.96719 | 151.19118 | 13 ft | 0 kts | 291° |
| 2026-04-20 12:14 | -33.96718 | 151.19115 | 13 ft | 0 kts | 294° |
| 2026-04-20 12:14 | -33.96716 | 151.19110 | 14 ft | 8 kts | 298° |
| 2026-04-20 12:15 | -33.96566 | 151.19046 | 15 ft | 29 kts | 349° |
| 2026-04-20 12:15 | -33.96497 | 151.19028 | 15 ft | 16 kts | 347° |
| 2026-04-20 12:15 | -33.96340 | 151.18988 | 21 ft | 29 kts | 347° |
| 2026-04-20 12:15 | -33.96099 | 151.18925 | 21 ft | 41 kts | 347° |
| 2026-04-20 12:16 | -33.95951 | 151.18888 | 23 ft | 22 kts | 348° |
| 2026-04-20 12:16 | -33.95750 | 151.18836 | 21 ft | 26 kts | 348° |
| 2026-04-20 12:16 | -33.95621 | 151.18803 | 20 ft | 26 kts | 347° |
| 2026-04-20 12:16 | -33.95394 | 151.18741 | 19 ft | 39 kts | 347° |
| 2026-04-20 12:17 | -33.95250 | 151.18686 | 22 ft | 25 kts | 324° |
| 2026-04-20 12:17 | -33.95131 | 151.18553 | 23 ft | 26 kts | 304° |
| 2026-04-20 12:17 | -33.95141 | 151.18309 | 21 ft | 34 kts | 258° |
| 2026-04-20 12:17 | -33.95171 | 151.18140 | 22 ft | 16 kts | 257° |
| 2026-04-20 12:18 | -33.95190 | 151.18042 | 21 ft | 0 kts | 257° |
| 2026-04-20 12:21 | -33.95193 | 151.18009 | 23 ft | 14 kts | 271° |
| 2026-04-20 12:21 | -33.95072 | 151.17938 | 21 ft | 24 kts | 347° |
| 2026-04-20 12:21 | -33.94837 | 151.17876 | 17 ft | 46 kts | 349° |
| 2026-04-20 12:22 | -33.94664 | 151.17834 | 17 ft | 23 kts | 350° |
| 2026-04-20 12:22 | -33.94606 | 151.17818 | 21 ft | 17 kts | 348° |
| 2026-04-20 12:22 | -33.94564 | 151.17806 | 20 ft | 0 kts | 345° |
| 2026-04-20 12:23 | -33.94550 | 151.17802 | 18 ft | 13 kts | 345° |
| 2026-04-20 12:23 | -33.94383 | 151.17752 | 21 ft | 25 kts | 346° |
| 2026-04-20 12:24 | -33.94166 | 151.17685 | 17 ft | 18 kts | 346° |
| 2026-04-20 12:24 | -33.94012 | 151.17640 | 17 ft | 24 kts | 349° |
| 2026-04-20 12:24 | -33.93876 | 151.17641 | 16 ft | 17 kts | 61° |
| 2026-04-20 12:24 | -33.93830 | 151.17833 | 19 ft | 19 kts | 72° |
| 2026-04-20 12:25 | -33.93794 | 151.17978 | 28 ft | 28 kts | 75° |
| 2026-04-20 12:25 | -33.93752 | 151.18160 | 26 ft | 13 kts | 77° |
| 2026-04-20 12:25 | -33.93727 | 151.18227 | 26 ft | 1 kts | 13° |
| 2026-04-20 12:25 | -33.93663 | 151.18207 | 26 ft | 9 kts | 357° |
| 2026-04-20 12:26 | -33.93612 | 151.18217 | 26 ft | 0 kts | 39° |
| 2026-04-20 12:26 | -33.93623 | 151.18241 | 26 ft | 4 kts | 149° |
| 2026-04-20 12:26 | -33.93625 | 151.18243 | 26 ft | 0 kts | 147° |